sensor_id;sensor_type;location;lat;lon;timestamp;pressure;altitude;pressure_sealevel;temperature;humidity
64189;BME280;50493;50.970;10.082;2023-03-05T00:00:43;99560.03;;;2.03;69.21
64189;BME280;50493;50.970;10.082;2023-03-05T00:03:09;99557.22;;;1.89;69.78
64189;BME280;50493;50.970;10.082;2023-03-05T00:05:34;99562.63;;;2.04;69.31
64189;BME280;50493;50.970;10.082;2023-03-05T00:08:00;99559.16;;;2.01;68.60
64189;BME280;50493;50.970;10.082;2023-03-05T00:10:25;99557.41;;;2.01;69.49
64189;BME280;50493;50.970;10.082;2023-03-05T00:12:50;99556.00;;;2.22;68.45
64189;BME280;50493;50.970;10.082;2023-03-05T00:15:16;99549.25;;;2.30;68.14
64189;BME280;50493;50.970;10.082;2023-03-05T00:17:42;99550.66;;;2.10;68.20
64189;BME280;50493;50.970;10.082;2023-03-05T00:20:09;99552.44;;;2.14;68.17
64189;BME280;50493;50.970;10.082;2023-03-05T00:22:35;99545.47;;;2.06;68.04
64189;BME280;50493;50.970;10.082;2023-03-05T00:25:02;99548.59;;;1.87;68.87
64189;BME280;50493;50.970;10.082;2023-03-05T00:27:27;99541.91;;;1.98;68.68
64189;BME280;50493;50.970;10.082;2023-03-05T00:29:52;99543.53;;;1.93;69.26
64189;BME280;50493;50.970;10.082;2023-03-05T00:32:18;99541.94;;;2.01;69.17
64189;BME280;50493;50.970;10.082;2023-03-05T00:34:45;99538.75;;;2.16;68.26
64189;BME280;50493;50.970;10.082;2023-03-05T00:37:10;99540.28;;;2.03;68.75
64189;BME280;50493;50.970;10.082;2023-03-05T00:39:36;99536.66;;;1.92;69.32
64189;BME280;50493;50.970;10.082;2023-03-05T00:42:01;99533.22;;;1.93;68.88
64189;BME280;50493;50.970;10.082;2023-03-05T00:44:26;99526.47;;;2.01;68.60
64189;BME280;50493;50.970;10.082;2023-03-05T00:46:52;99529.09;;;2.04;68.50
64189;BME280;50493;50.970;10.082;2023-03-05T00:49:17;99518.88;;;2.09;67.87
64189;BME280;50493;50.970;10.082;2023-03-05T00:51:44;99523.44;;;2.30;66.99
64189;BME280;50493;50.970;10.082;2023-03-05T00:54:09;99520.84;;;2.29;67.13
64189;BME280;50493;50.970;10.082;2023-03-05T00:56:34;99512.75;;;2.02;67.65
64189;BME280;50493;50.970;10.082;2023-03-05T00:59:00;99515.19;;;2.56;65.90
64189;BME280;50493;50.970;10.082;2023-03-05T01:01:25;99506.50;;;2.48;66.19
64189;BME280;50493;50.970;10.082;2023-03-05T01:03:52;99504.28;;;2.79;63.71
64189;BME280;50493;50.970;10.082;2023-03-05T01:06:20;99500.97;;;2.89;63.31
64189;BME280;50493;50.970;10.082;2023-03-05T01:08:47;99506.34;;;2.38;66.19
64189;BME280;50493;50.970;10.082;2023-03-05T01:11:13;99504.88;;;2.56;65.25
64189;BME280;50493;50.970;10.082;2023-03-05T01:13:38;99500.13;;;2.21;66.30
64189;BME280;50493;50.970;10.082;2023-03-05T01:16:04;99505.34;;;2.26;66.91
64189;BME280;50493;50.970;10.082;2023-03-05T01:18:30;99499.25;;;2.22;66.71
64189;BME280;50493;50.970;10.082;2023-03-05T01:20:55;99500.84;;;2.11;66.91
64189;BME280;50493;50.970;10.082;2023-03-05T01:23:21;99493.78;;;2.00;67.92
64189;BME280;50493;50.970;10.082;2023-03-05T01:25:53;99488.63;;;2.00;67.74
64189;BME280;50493;50.970;10.082;2023-03-05T01:28:18;99488.94;;;2.22;67.18
64189;BME280;50493;50.970;10.082;2023-03-05T01:30:43;99480.69;;;2.48;65.35
64189;BME280;50493;50.970;10.082;2023-03-05T01:33:09;99483.63;;;2.10;67.27
64189;BME280;50493;50.970;10.082;2023-03-05T01:35:34;99484.03;;;1.79;68.52
64189;BME280;50493;50.970;10.082;2023-03-05T01:37:59;99476.63;;;1.99;67.17
64189;BME280;50493;50.970;10.082;2023-03-05T01:40:28;99471.03;;;2.33;66.34
64189;BME280;50493;50.970;10.082;2023-03-05T01:43:00;99481.72;;;2.61;65.09
64189;BME280;50493;50.970;10.082;2023-03-05T01:45:28;99467.56;;;2.29;65.75
64189;BME280;50493;50.970;10.082;2023-03-05T01:47:54;99474.91;;;2.01;66.63
64189;BME280;50493;50.970;10.082;2023-03-05T01:50:21;99476.66;;;2.02;67.25
64189;BME280;50493;50.970;10.082;2023-03-05T01:52:52;99473.13;;;1.97;66.85
64189;BME280;50493;50.970;10.082;2023-03-05T01:55:20;99466.16;;;1.90;67.75
64189;BME280;50493;50.970;10.082;2023-03-05T01:57:49;99470.66;;;2.03;66.02
64189;BME280;50493;50.970;10.082;2023-03-05T02:00:19;99464.97;;;2.28;65.70
64189;BME280;50493;50.970;10.082;2023-03-05T02:02:47;99468.72;;;2.53;65.25
64189;BME280;50493;50.970;10.082;2023-03-05T02:05:16;99459.34;;;2.61;64.46
64189;BME280;50493;50.970;10.082;2023-03-05T02:07:42;99463.31;;;2.34;65.44
64189;BME280;50493;50.970;10.082;2023-03-05T02:10:17;99461.66;;;2.39;65.58
64189;BME280;50493;50.970;10.082;2023-03-05T02:12:43;99459.91;;;2.38;65.44
64189;BME280;50493;50.970;10.082;2023-03-05T02:15:09;99456.75;;;2.60;64.22
64189;BME280;50493;50.970;10.082;2023-03-05T02:17:37;99449.59;;;3.12;56.25
64189;BME280;50493;50.970;10.082;2023-03-05T02:20:06;99442.97;;;3.39;60.47
64189;BME280;50493;50.970;10.082;2023-03-05T02:22:33;99453.22;;;3.34;61.01
64189;BME280;50493;50.970;10.082;2023-03-05T02:24:59;99452.19;;;2.38;64.59
64189;BME280;50493;50.970;10.082;2023-03-05T02:27:29;99456.03;;;2.02;66.36
64189;BME280;50493;50.970;10.082;2023-03-05T02:30:00;99447.81;;;2.33;65.22
64189;BME280;50493;50.970;10.082;2023-03-05T02:32:26;99445.56;;;2.57;64.33
64189;BME280;50493;50.970;10.082;2023-03-05T02:34:51;99450.06;;;2.76;62.75
64189;BME280;50493;50.970;10.082;2023-03-05T02:37:16;99446.09;;;2.32;61.81
64189;BME280;50493;50.970;10.082;2023-03-05T02:39:43;99443.28;;;2.15;66.20
64189;BME280;50493;50.970;10.082;2023-03-05T02:42:08;99443.13;;;2.02;66.99
64189;BME280;50493;50.970;10.082;2023-03-05T02:44:34;99435.44;;;2.05;66.38
64189;BME280;50493;50.970;10.082;2023-03-05T02:46:59;99436.22;;;2.00;67.16
64189;BME280;50493;50.970;10.082;2023-03-05T02:49:25;99435.47;;;2.09;66.29
64189;BME280;50493;50.970;10.082;2023-03-05T02:51:50;99437.47;;;2.31;65.73
64189;BME280;50493;50.970;10.082;2023-03-05T02:54:16;99431.22;;;2.14;65.78
64189;BME280;50493;50.970;10.082;2023-03-05T02:56:42;99432.00;;;2.06;66.45
64189;BME280;50493;50.970;10.082;2023-03-05T02:59:08;99421.09;;;3.03;56.28
64189;BME280;50493;50.970;10.082;2023-03-05T03:01:33;99413.47;;;3.17;56.73
64189;BME280;50493;50.970;10.082;2023-03-05T03:03:58;99411.25;;;3.63;54.81
64189;BME280;50493;50.970;10.082;2023-03-05T03:06:24;99409.22;;;3.22;59.90
64189;BME280;50493;50.970;10.082;2023-03-05T03:08:49;99411.47;;;2.93;61.86
64189;BME280;50493;50.970;10.082;2023-03-05T03:11:15;99413.47;;;2.38;64.25
64189;BME280;50493;50.970;10.082;2023-03-05T03:13:43;99412.47;;;2.24;64.95
64189;BME280;50493;50.970;10.082;2023-03-05T03:16:09;99410.69;;;2.18;65.45
64189;BME280;50493;50.970;10.082;2023-03-05T03:18:35;99413.34;;;2.26;64.27
64189;BME280;50493;50.970;10.082;2023-03-05T03:21:01;99406.38;;;2.96;59.98
64189;BME280;50493;50.970;10.082;2023-03-05T03:23:27;99402.06;;;2.96;60.33
64189;BME280;50493;50.970;10.082;2023-03-05T03:25:52;99392.19;;;3.49;54.50
64189;BME280;50493;50.970;10.082;2023-03-05T03:28:18;99388.50;;;3.16;58.88
64189;BME280;50493;50.970;10.082;2023-03-05T03:30:44;99391.34;;;3.48;54.46
64189;BME280;50493;50.970;10.082;2023-03-05T03:33:10;99381.59;;;3.12;56.98
64189;BME280;50493;50.970;10.082;2023-03-05T03:35:35;99374.84;;;3.29;54.77
64189;BME280;50493;50.970;10.082;2023-03-05T03:38:00;99365.53;;;3.53;56.24
64189;BME280;50493;50.970;10.082;2023-03-05T03:40:26;99377.38;;;3.23;58.87
64189;BME280;50493;50.970;10.082;2023-03-05T03:42:51;99374.44;;;2.86;57.53
64189;BME280;50493;50.970;10.082;2023-03-05T03:45:17;99368.81;;;3.32;56.26
64189;BME280;50493;50.970;10.082;2023-03-05T03:47:43;99366.22;;;3.29;56.15
64189;BME280;50493;50.970;10.082;2023-03-05T03:50:10;99360.88;;;3.09;60.84
64189;BME280;50493;50.970;10.082;2023-03-05T03:52:35;99354.41;;;3.65;56.40
64189;BME280;50493;50.970;10.082;2023-03-05T03:55:01;99345.75;;;3.64;54.32
64189;BME280;50493;50.970;10.082;2023-03-05T03:57:27;99343.91;;;3.43;54.01
64189;BME280;50493;50.970;10.082;2023-03-05T03:59:53;99340.69;;;3.80;53.33
64189;BME280;50493;50.970;10.082;2023-03-05T04:02:18;99343.91;;;3.42;58.04
64189;BME280;50493;50.970;10.082;2023-03-05T04:04:45;99338.75;;;3.42;57.81
64189;BME280;50493;50.970;10.082;2023-03-05T04:07:10;99351.47;;;3.17;59.45
64189;BME280;50493;50.970;10.082;2023-03-05T04:09:35;99338.63;;;3.26;57.72
64189;BME280;50493;50.970;10.082;2023-03-05T04:12:01;99332.69;;;3.38;55.03
64189;BME280;50493;50.970;10.082;2023-03-05T04:14:26;99329.09;;;3.17;58.54
64189;BME280;50493;50.970;10.082;2023-03-05T04:16:51;99331.63;;;3.13;60.73
64189;BME280;50493;50.970;10.082;2023-03-05T04:19:17;99328.09;;;2.98;60.73
64189;BME280;50493;50.970;10.082;2023-03-05T04:21:43;99323.13;;;3.26;55.74
64189;BME280;50493;50.970;10.082;2023-03-05T04:24:09;99323.94;;;3.20;57.67
64189;BME280;50493;50.970;10.082;2023-03-05T04:26:34;99317.94;;;3.23;59.73
64189;BME280;50493;50.970;10.082;2023-03-05T04:29:00;99321.38;;;3.19;55.88
64189;BME280;50493;50.970;10.082;2023-03-05T04:31:25;99325.28;;;2.77;62.36
64189;BME280;50493;50.970;10.082;2023-03-05T04:33:50;99316.00;;;2.97;60.20
64189;BME280;50493;50.970;10.082;2023-03-05T04:36:16;99314.22;;;2.90;61.42
64189;BME280;50493;50.970;10.082;2023-03-05T04:38:42;99312.44;;;2.83;62.15
64189;BME280;50493;50.970;10.082;2023-03-05T04:41:08;99309.63;;;2.58;62.77
64189;BME280;50493;50.970;10.082;2023-03-05T04:43:33;99300.69;;;3.16;58.50
64189;BME280;50493;50.970;10.082;2023-03-05T04:45:58;99302.53;;;3.35;56.54
64189;BME280;50493;50.970;10.082;2023-03-05T04:48:24;99294.91;;;3.58;54.60
64189;BME280;50493;50.970;10.082;2023-03-05T04:50:49;99293.19;;;3.61;54.01
64189;BME280;50493;50.970;10.082;2023-03-05T04:53:15;99292.13;;;3.26;59.46
64189;BME280;50493;50.970;10.082;2023-03-05T04:55:41;99299.06;;;3.33;58.45
64189;BME280;50493;50.970;10.082;2023-03-05T04:58:07;99292.09;;;3.20;60.18
64189;BME280;50493;50.970;10.082;2023-03-05T05:00:33;99291.41;;;3.46;57.61
64189;BME280;50493;50.970;10.082;2023-03-05T05:02:58;99290.56;;;3.56;56.92
64189;BME280;50493;50.970;10.082;2023-03-05T05:05:27;99288.97;;;3.81;53.83
64189;BME280;50493;50.970;10.082;2023-03-05T05:07:53;99286.41;;;3.86;52.62
64189;BME280;50493;50.970;10.082;2023-03-05T05:10:20;99279.56;;;3.96;51.39
64189;BME280;50493;50.970;10.082;2023-03-05T05:12:46;99282.84;;;3.59;55.34
64189;BME280;50493;50.970;10.082;2023-03-05T05:15:12;99276.78;;;3.51;56.84
64189;BME280;50493;50.970;10.082;2023-03-05T05:17:37;99272.56;;;3.78;55.71
64189;BME280;50493;50.970;10.082;2023-03-05T05:20:04;99270.81;;;3.66;55.83
64189;BME280;50493;50.970;10.082;2023-03-05T05:22:33;99272.66;;;3.96;52.66
64189;BME280;50493;50.970;10.082;2023-03-05T05:24:59;99268.28;;;3.80;54.85
64189;BME280;50493;50.970;10.082;2023-03-05T05:27:25;99270.78;;;3.60;57.57
64189;BME280;50493;50.970;10.082;2023-03-05T05:29:51;99276.00;;;3.72;55.12
64189;BME280;50493;50.970;10.082;2023-03-05T05:32:17;99268.38;;;3.98;50.55
64189;BME280;50493;50.970;10.082;2023-03-05T05:34:43;99271.81;;;3.97;50.51
64189;BME280;50493;50.970;10.082;2023-03-05T05:37:08;99268.28;;;3.80;51.80
64189;BME280;50493;50.970;10.082;2023-03-05T05:39:34;99276.00;;;3.66;50.82
64189;BME280;50493;50.970;10.082;2023-03-05T05:41:59;99273.31;;;3.52;54.88
64189;BME280;50493;50.970;10.082;2023-03-05T05:44:24;99272.56;;;3.73;50.54
64189;BME280;50493;50.970;10.082;2023-03-05T05:46:51;99273.25;;;3.43;53.22
64189;BME280;50493;50.970;10.082;2023-03-05T05:49:16;99274.88;;;3.19;51.74
64189;BME280;50493;50.970;10.082;2023-03-05T05:51:42;99276.66;;;3.32;52.04
64189;BME280;50493;50.970;10.082;2023-03-05T05:54:10;99271.44;;;3.26;54.81
64189;BME280;50493;50.970;10.082;2023-03-05T05:56:36;99269.88;;;3.50;51.37
64189;BME280;50493;50.970;10.082;2023-03-05T05:59:01;99272.41;;;3.39;53.88
64189;BME280;50493;50.970;10.082;2023-03-05T06:01:28;99282.41;;;2.96;55.50
64189;BME280;50493;50.970;10.082;2023-03-05T06:03:56;99283.00;;;2.62;61.04
64189;BME280;50493;50.970;10.082;2023-03-05T06:06:23;99286.34;;;2.52;62.06
64189;BME280;50493;50.970;10.082;2023-03-05T06:08:49;99286.50;;;2.67;60.79
64189;BME280;50493;50.970;10.082;2023-03-05T06:11:15;99278.09;;;2.92;59.94
64189;BME280;50493;50.970;10.082;2023-03-05T06:13:40;99280.81;;;3.07;56.61
64189;BME280;50493;50.970;10.082;2023-03-05T06:16:08;99273.19;;;3.29;53.38
64189;BME280;50493;50.970;10.082;2023-03-05T06:18:35;99270.72;;;3.49;54.25
64189;BME280;50493;50.970;10.082;2023-03-05T06:21:03;99271.72;;;3.76;50.28
64189;BME280;50493;50.970;10.082;2023-03-05T06:23:29;99267.34;;;3.68;53.74
64189;BME280;50493;50.970;10.082;2023-03-05T06:25:57;99269.03;;;3.54;53.79
64189;BME280;50493;50.970;10.082;2023-03-05T06:28:23;99275.78;;;3.32;57.40
64189;BME280;50493;50.970;10.082;2023-03-05T06:30:48;99268.03;;;3.27;58.26
64189;BME280;50493;50.970;10.082;2023-03-05T06:33:14;99263.03;;;3.58;52.09
64189;BME280;50493;50.970;10.082;2023-03-05T06:35:39;99256.09;;;3.51;54.71
64189;BME280;50493;50.970;10.082;2023-03-05T06:38:07;99254.41;;;3.59;51.49
64189;BME280;50493;50.970;10.082;2023-03-05T06:40:33;99256.09;;;3.52;52.70
64189;BME280;50493;50.970;10.082;2023-03-05T06:42:58;99260.97;;;2.98;59.51
64189;BME280;50493;50.970;10.082;2023-03-05T06:45:23;99260.13;;;3.01;59.83
64189;BME280;50493;50.970;10.082;2023-03-05T06:47:49;99257.81;;;3.46;53.04
64189;BME280;50493;50.970;10.082;2023-03-05T06:50:14;99259.44;;;3.31;51.42
64189;BME280;50493;50.970;10.082;2023-03-05T06:52:39;99259.50;;;3.40;54.12
64189;BME280;50493;50.970;10.082;2023-03-05T06:55:07;99253.56;;;3.63;50.75
64189;BME280;50493;50.970;10.082;2023-03-05T06:57:32;99246.66;;;3.59;49.98
64189;BME280;50493;50.970;10.082;2023-03-05T06:59:58;99248.31;;;3.46;54.38
64189;BME280;50493;50.970;10.082;2023-03-05T07:02:23;99253.38;;;3.28;55.23
64189;BME280;50493;50.970;10.082;2023-03-05T07:04:49;99254.25;;;3.28;52.64
64189;BME280;50493;50.970;10.082;2023-03-05T07:07:14;99244.00;;;3.47;50.87
64189;BME280;50493;50.970;10.082;2023-03-05T07:09:40;99246.56;;;3.40;50.59
64189;BME280;50493;50.970;10.082;2023-03-05T07:12:09;99243.09;;;3.35;56.92
64189;BME280;50493;50.970;10.082;2023-03-05T07:14:36;99234.44;;;3.29;56.14
64189;BME280;50493;50.970;10.082;2023-03-05T07:17:01;99246.63;;;3.57;53.59
64189;BME280;50493;50.970;10.082;2023-03-05T07:19:26;99244.03;;;3.57;55.22
64189;BME280;50493;50.970;10.082;2023-03-05T07:21:52;99244.97;;;3.75;51.04
64189;BME280;50493;50.970;10.082;2023-03-05T07:24:17;99238.81;;;3.47;55.34
64189;BME280;50493;50.970;10.082;2023-03-05T07:26:42;99245.88;;;3.72;52.26
64189;BME280;50493;50.970;10.082;2023-03-05T07:29:09;99239.00;;;3.90;52.66
64189;BME280;50493;50.970;10.082;2023-03-05T07:31:35;99238.75;;;3.31;51.57
64189;BME280;50493;50.970;10.082;2023-03-05T07:34:02;99234.47;;;3.35;57.43
64189;BME280;50493;50.970;10.082;2023-03-05T07:36:28;99235.22;;;3.11;56.15
64189;BME280;50493;50.970;10.082;2023-03-05T07:38:54;99236.31;;;3.61;55.95
64189;BME280;50493;50.970;10.082;2023-03-05T07:41:20;99233.78;;;3.71;52.97
64189;BME280;50493;50.970;10.082;2023-03-05T07:43:49;99231.06;;;3.42;53.11
64189;BME280;50493;50.970;10.082;2023-03-05T07:46:18;99235.38;;;3.40;57.42
64189;BME280;50493;50.970;10.082;2023-03-05T07:48:44;99234.53;;;3.47;56.56
64189;BME280;50493;50.970;10.082;2023-03-05T07:51:12;99232.00;;;3.61;53.50
64189;BME280;50493;50.970;10.082;2023-03-05T07:53:40;99235.34;;;3.32;56.18
64189;BME280;50493;50.970;10.082;2023-03-05T07:56:06;99230.97;;;3.22;58.29
64189;BME280;50493;50.970;10.082;2023-03-05T07:58:31;99235.03;;;2.92;59.63
64189;BME280;50493;50.970;10.082;2023-03-05T08:00:57;99237.78;;;3.07;58.03
64189;BME280;50493;50.970;10.082;2023-03-05T08:03:23;99244.44;;;2.82;60.04
64189;BME280;50493;50.970;10.082;2023-03-05T08:05:49;99246.69;;;2.40;61.99
64189;BME280;50493;50.970;10.082;2023-03-05T08:08:14;99235.13;;;2.98;53.83
64189;BME280;50493;50.970;10.082;2023-03-05T08:10:40;99228.00;;;2.69;60.78
64189;BME280;50493;50.970;10.082;2023-03-05T08:13:06;99238.22;;;2.60;57.12
64189;BME280;50493;50.970;10.082;2023-03-05T08:15:32;99231.38;;;2.59;61.09
64189;BME280;50493;50.970;10.082;2023-03-05T08:17:58;99223.25;;;3.34;53.09
64189;BME280;50493;50.970;10.082;2023-03-05T08:20:25;99219.56;;;2.92;59.64
64189;BME280;50493;50.970;10.082;2023-03-05T08:22:51;99230.16;;;2.18;62.94
64189;BME280;50493;50.970;10.082;2023-03-05T08:25:16;99227.16;;;2.72;60.76
64189;BME280;50493;50.970;10.082;2023-03-05T08:27:43;99227.19;;;2.75;59.70
64189;BME280;50493;50.970;10.082;2023-03-05T08:30:11;99216.47;;;3.49;55.26
64189;BME280;50493;50.970;10.082;2023-03-05T08:32:37;99216.56;;;3.86;54.28
64189;BME280;50493;50.970;10.082;2023-03-05T08:35:04;99212.81;;;3.13;56.86
64189;BME280;50493;50.970;10.082;2023-03-05T08:37:32;99213.09;;;3.71;55.13
64189;BME280;50493;50.970;10.082;2023-03-05T08:39:57;99222.31;;;3.14;58.43
64189;BME280;50493;50.970;10.082;2023-03-05T08:42:23;99207.13;;;3.85;54.57
64189;BME280;50493;50.970;10.082;2023-03-05T08:44:49;99205.22;;;3.47;57.54
64189;BME280;50493;50.970;10.082;2023-03-05T08:47:14;99202.00;;;4.19;52.20
64189;BME280;50493;50.970;10.082;2023-03-05T08:49:40;99208.88;;;4.00;55.92
64189;BME280;50493;50.970;10.082;2023-03-05T08:52:05;99197.59;;;3.74;57.19
64189;BME280;50493;50.970;10.082;2023-03-05T08:54:33;99195.13;;;4.47;51.17
64189;BME280;50493;50.970;10.082;2023-03-05T08:56:58;99194.25;;;4.54;54.11
64189;BME280;50493;50.970;10.082;2023-03-05T08:59:24;99203.75;;;4.77;50.57
64189;BME280;50493;50.970;10.082;2023-03-05T09:01:49;99195.97;;;4.88;53.18
64189;BME280;50493;50.970;10.082;2023-03-05T09:04:14;99190.78;;;4.72;49.83
64189;BME280;50493;50.970;10.082;2023-03-05T09:06:40;99192.50;;;4.32;50.91
64189;BME280;50493;50.970;10.082;2023-03-05T09:09:06;99188.13;;;3.81;56.55
64189;BME280;50493;50.970;10.082;2023-03-05T09:11:33;99189.06;;;4.31;55.81
64189;BME280;50493;50.970;10.082;2023-03-05T09:14:00;99183.91;;;4.51;52.35
64189;BME280;50493;50.970;10.082;2023-03-05T09:16:25;99185.63;;;4.32;51.57
64189;BME280;50493;50.970;10.082;2023-03-05T09:18:51;99175.28;;;4.45;55.21
64189;BME280;50493;50.970;10.082;2023-03-05T09:21:16;99173.53;;;4.53;54.83
64189;BME280;50493;50.970;10.082;2023-03-05T09:23:43;99174.16;;;3.31;60.30
64189;BME280;50493;50.970;10.082;2023-03-05T09:26:10;99176.16;;;4.27;52.41
64189;BME280;50493;50.970;10.082;2023-03-05T09:28:39;99176.03;;;3.63;58.31
64189;BME280;50493;50.970;10.082;2023-03-05T09:31:05;99175.16;;;3.61;54.96
64189;BME280;50493;50.970;10.082;2023-03-05T09:33:32;99174.91;;;3.02;61.70
64189;BME280;50493;50.970;10.082;2023-03-05T09:35:58;99176.41;;;2.76;62.42
64189;BME280;50493;50.970;10.082;2023-03-05T09:38:24;99163.09;;;3.69;58.07
64189;BME280;50493;50.970;10.082;2023-03-05T09:40:55;99161.44;;;4.08;56.26
64189;BME280;50493;50.970;10.082;2023-03-05T09:43:35;99173.41;;;3.60;58.52
64189;BME280;50493;50.970;10.082;2023-03-05T09:46:16;99165.72;;;3.76;56.92
64189;BME280;50493;50.970;10.082;2023-03-05T09:48:50;99163.19;;;4.11;57.02
64189;BME280;50493;50.970;10.082;2023-03-05T09:51:21;99169.97;;;3.55;59.75
64189;BME280;50493;50.970;10.082;2023-03-05T09:53:50;99169.25;;;4.24;56.12
64189;BME280;50493;50.970;10.082;2023-03-05T09:56:20;99166.56;;;3.74;59.41
64189;BME280;50493;50.970;10.082;2023-03-05T09:58:48;99157.13;;;3.90;57.15
64189;BME280;50493;50.970;10.082;2023-03-05T10:01:18;99159.56;;;3.35;60.20
64189;BME280;50493;50.970;10.082;2023-03-05T10:03:52;99158.66;;;3.30;61.64
64189;BME280;50493;50.970;10.082;2023-03-05T10:06:21;99153.44;;;3.17;61.56
64189;BME280;50493;50.970;10.082;2023-03-05T10:08:52;99156.25;;;3.99;55.03
64189;BME280;50493;50.970;10.082;2023-03-05T10:11:29;99148.38;;;5.21;52.62
64189;BME280;50493;50.970;10.082;2023-03-05T10:13:58;99146.34;;;5.87;50.92
64189;BME280;50493;50.970;10.082;2023-03-05T10:19:34;99133.47;;;5.74;52.24
64189;BME280;50493;50.970;10.082;2023-03-05T10:22:13;99134.50;;;5.32;54.22
64189;BME280;50493;50.970;10.082;2023-03-05T10:24:52;99125.94;;;6.51;47.36
64189;BME280;50493;50.970;10.082;2023-03-05T10:27:32;99126.38;;;6.01;52.00
64189;BME280;50493;50.970;10.082;2023-03-05T10:30:11;99122.94;;;5.96;52.14
64189;BME280;50493;50.970;10.082;2023-03-05T10:32:48;99113.38;;;6.00;52.46
64189;BME280;50493;50.970;10.082;2023-03-05T10:35:31;99110.66;;;6.17;50.47
64189;BME280;50493;50.970;10.082;2023-03-05T10:38:11;99107.94;;;6.32;50.36
64189;BME280;50493;50.970;10.082;2023-03-05T10:40:43;99099.63;;;6.85;50.09
64189;BME280;50493;50.970;10.082;2023-03-05T10:43:18;99105.88;;;5.61;54.45
64189;BME280;50493;50.970;10.082;2023-03-05T10:45:49;99097.31;;;6.58;47.53
64189;BME280;50493;50.970;10.082;2023-03-05T10:48:25;99096.47;;;5.31;55.82
64189;BME280;50493;50.970;10.082;2023-03-05T10:50:56;99101.78;;;5.12;52.37
64189;BME280;50493;50.970;10.082;2023-03-05T10:53:26;99098.31;;;5.15;56.34
64189;BME280;50493;50.970;10.082;2023-03-05T10:55:52;99106.25;;;4.25;60.61
64189;BME280;50493;50.970;10.082;2023-03-05T10:58:21;99098.47;;;4.56;54.23
64189;BME280;50493;50.970;10.082;2023-03-05T11:00:58;99089.03;;;4.07;61.67
64189;BME280;50493;50.970;10.082;2023-03-05T11:03:44;99095.88;;;3.57;58.69
64189;BME280;50493;50.970;10.082;2023-03-05T11:06:11;99087.28;;;3.84;59.49
64189;BME280;50493;50.970;10.082;2023-03-05T11:08:37;99089.00;;;4.33;57.09
64189;BME280;50493;50.970;10.082;2023-03-05T11:11:11;99090.75;;;4.13;60.61
64189;BME280;50493;50.970;10.082;2023-03-05T11:13:43;99078.66;;;4.46;60.80
64189;BME280;50493;50.970;10.082;2023-03-05T11:16:22;99076.88;;;4.69;60.13
64189;BME280;50493;50.970;10.082;2023-03-05T11:19:11;99080.41;;;4.19;60.30
64189;BME280;50493;50.970;10.082;2023-03-05T11:21:40;99075.22;;;3.91;63.61
64189;BME280;50493;50.970;10.082;2023-03-05T11:24:10;99070.03;;;4.03;62.59
64189;BME280;50493;50.970;10.082;2023-03-05T11:26:45;99059.69;;;4.25;62.01
64189;BME280;50493;50.970;10.082;2023-03-05T11:29:17;99061.44;;;4.31;62.45
64189;BME280;50493;50.970;10.082;2023-03-05T11:31:42;99060.53;;;4.42;62.22
64189;BME280;50493;50.970;10.082;2023-03-05T11:34:22;99052.63;;;4.86;60.54
64189;BME280;50493;50.970;10.082;2023-03-05T11:36:59;99054.44;;;4.62;62.05
64189;BME280;50493;50.970;10.082;2023-03-05T11:39:28;99049.25;;;4.65;60.62
64189;BME280;50493;50.970;10.082;2023-03-05T11:41:58;99043.03;;;5.17;57.26
64189;BME280;50493;50.970;10.082;2023-03-05T11:44:26;99040.53;;;4.97;60.95
64189;BME280;50493;50.970;10.082;2023-03-05T11:46:55;99051.81;;;4.82;60.95
64189;BME280;50493;50.970;10.082;2023-03-05T11:49:24;99040.53;;;4.97;61.25
64189;BME280;50493;50.970;10.082;2023-03-05T11:51:57;99040.44;;;5.17;51.52
64189;BME280;50493;50.970;10.082;2023-03-05T11:54:28;99044.03;;;4.79;60.06
64189;BME280;50493;50.970;10.082;2023-03-05T11:56:56;99035.25;;;5.13;56.37
64189;BME280;50493;50.970;10.082;2023-03-05T11:59:26;99037.16;;;4.66;62.13
64189;BME280;50493;50.970;10.082;2023-03-05T12:01:54;99040.66;;;4.48;58.77
64189;BME280;50493;50.970;10.082;2023-03-05T12:04:22;99039.81;;;4.50;62.47
64189;BME280;50493;50.970;10.082;2023-03-05T12:06:50;99036.41;;;4.22;64.79
64189;BME280;50493;50.970;10.082;2023-03-05T12:09:21;99030.31;;;4.46;60.29
64189;BME280;50493;50.970;10.082;2023-03-05T12:11:51;99034.63;;;4.53;63.47
64189;BME280;50493;50.970;10.082;2023-03-05T12:14:22;99030.34;;;4.38;64.26
64189;BME280;50493;50.970;10.082;2023-03-05T12:16:52;99036.38;;;4.45;63.61
64189;BME280;50493;50.970;10.082;2023-03-05T12:19:46;99021.75;;;4.18;66.31
64189;BME280;50493;50.970;10.082;2023-03-05T12:22:17;99021.63;;;4.64;64.35
64189;BME280;50493;50.970;10.082;2023-03-05T12:24:44;99017.41;;;4.28;65.14
64189;BME280;50493;50.970;10.082;2023-03-05T12:27:15;99012.25;;;4.31;64.16
64189;BME280;50493;50.970;10.082;2023-03-05T12:29:44;99001.72;;;4.80;55.76
64189;BME280;50493;50.970;10.082;2023-03-05T12:35:25;99002.69;;;4.53;63.83
64189;BME280;50493;50.970;10.082;2023-03-05T12:40:51;99001.00;;;4.46;64.53
64189;BME280;50493;50.970;10.082;2023-03-05T12:43:28;98999.16;;;4.72;63.03
64189;BME280;50493;50.970;10.082;2023-03-05T12:46:22;98988.69;;;5.00;61.84
64189;BME280;50493;50.970;10.082;2023-03-05T12:48:48;98992.25;;;4.81;64.20
64189;BME280;50493;50.970;10.082;2023-03-05T12:51:27;98989.69;;;4.68;64.37
64189;BME280;50493;50.970;10.082;2023-03-05T12:53:53;98987.97;;;4.69;64.67
64189;BME280;50493;50.970;10.082;2023-03-05T12:56:21;98983.66;;;4.66;64.87
64189;BME280;50493;50.970;10.082;2023-03-05T12:58:51;98984.69;;;4.17;65.89
64189;BME280;50493;50.970;10.082;2023-03-05T13:01:28;98976.94;;;4.06;66.21
64189;BME280;50493;50.970;10.082;2023-03-05T13:03:57;98982.06;;;4.28;65.17
64189;BME280;50493;50.970;10.082;2023-03-05T13:06:28;98981.19;;;4.28;64.67
64189;BME280;50493;50.970;10.082;2023-03-05T13:08:58;98969.88;;;4.55;61.37
64189;BME280;50493;50.970;10.082;2023-03-05T13:11:24;98973.41;;;4.35;65.50